createdAt,value
2022-11-24T00:00:06.626Z,1.13
2022-11-24T00:01:11.322Z,1.30
2022-11-24T00:02:13.319Z,1.60
2022-11-24T00:03:15.366Z,1.33
2022-11-24T00:04:17.257Z,1.27
2022-11-24T00:05:19.200Z,1.10
2022-11-24T00:06:21.353Z,1.25
2022-11-24T00:07:23.293Z,1.10
2022-11-24T00:08:25.065Z,1.10
2022-11-24T00:09:26.922Z,1.02
2022-11-24T00:10:28.674Z,1.15
2022-11-24T00:11:33.057Z,1.13
2022-11-24T00:12:34.887Z,1.20
2022-11-24T00:13:40.239Z,1.10
2022-11-24T00:14:42.030Z,1.50
2022-11-24T00:15:43.821Z,1.70
2022-11-24T00:16:45.741Z,1.30
2022-11-24T00:17:47.523Z,1.40
2022-11-24T00:18:51.766Z,1.33
2022-11-24T00:19:53.585Z,1.40
2022-11-24T00:20:55.310Z,1.15
2022-11-24T00:21:57.146Z,1.08
2022-11-24T00:22:58.964Z,1.50
2022-11-24T00:24:01.181Z,0.93
2022-11-24T00:25:03.001Z,1.10
2022-11-24T00:26:13.981Z,1.13
2022-11-24T00:27:15.827Z,1.20
2022-11-24T00:28:17.594Z,1.20
2022-11-24T00:29:19.353Z,1.35
2022-11-24T00:30:21.288Z,1.40
2022-11-24T00:31:24.916Z,1.48
2022-11-24T00:32:30.709Z,1.30
2022-11-24T00:33:32.794Z,1.05
2022-11-24T00:34:34.927Z,1.33
2022-11-24T00:35:36.984Z,1.40
2022-11-24T00:36:39.121Z,1.17
2022-11-24T00:37:40.854Z,1.00
2022-11-24T00:38:43.215Z,1.00
2022-11-24T00:39:45.079Z,1.38
2022-11-24T00:40:46.915Z,1.10
2022-11-24T00:41:48.653Z,1.13
2022-11-24T00:42:50.404Z,1.30
2022-11-24T00:43:52.776Z,0.90
2022-11-24T00:44:54.509Z,1.30
2022-11-24T00:45:56.386Z,1.40
2022-11-24T00:46:58.873Z,1.10
2022-11-24T00:48:00.697Z,1.23
2022-11-24T00:49:02.742Z,1.17
2022-11-24T00:50:04.868Z,1.20
2022-11-24T00:51:09.709Z,1.10
2022-11-24T00:52:11.570Z,1.20
2022-11-24T00:53:13.399Z,1.10
2022-11-24T00:54:15.146Z,1.27
2022-11-24T00:55:16.951Z,1.00
2022-11-24T00:56:19.358Z,1.42
2022-11-24T00:57:21.217Z,1.00
2022-11-24T00:58:24.552Z,1.20
2022-11-24T00:59:26.494Z,1.00
2022-11-24T01:00:28.230Z,1.10
2022-11-24T01:01:31.580Z,1.40
2022-11-24T01:02:33.556Z,1.40
2022-11-24T01:03:35.469Z,1.25
2022-11-24T01:04:37.324Z,1.45
2022-11-24T01:05:39.953Z,1.15
2022-11-24T01:06:41.845Z,1.20
2022-11-24T01:07:44.031Z,1.33
2022-11-24T01:08:46.704Z,1.30
2022-11-24T01:09:48.528Z,1.52
2022-11-24T01:10:50.409Z,1.45
2022-11-24T01:12:01.405Z,1.23
2022-11-24T01:13:03.731Z,1.70
2022-11-24T01:14:05.705Z,1.30
2022-11-24T01:15:07.914Z,1.35
2022-11-24T01:16:19.102Z,1.33
2022-11-24T01:17:21.044Z,1.58
2022-11-24T01:18:22.899Z,1.50
2022-11-24T01:19:24.849Z,1.35
2022-11-24T01:20:26.721Z,1.30
2022-11-24T01:21:28.462Z,1.40
2022-11-24T01:22:30.511Z,1.02
2022-11-24T01:23:32.516Z,1.30
2022-11-24T01:24:34.414Z,1.70
2022-11-24T01:25:39.798Z,1.08
2022-11-24T01:26:42.318Z,1.13
2022-11-24T01:27:44.110Z,1.20
2022-11-24T01:28:47.704Z,1.30
2022-11-24T01:29:49.770Z,1.38
2022-11-24T01:31:02.588Z,1.05
2022-11-24T01:32:04.698Z,1.40
2022-11-24T01:33:06.457Z,1.10
2022-11-24T01:34:08.261Z,1.38
2022-11-24T01:35:10.208Z,1.20
2022-11-24T01:36:12.569Z,1.27
2022-11-24T01:37:14.459Z,1.50
2022-11-24T01:38:16.223Z,1.30
2022-11-24T01:39:18.057Z,1.33
2022-11-24T01:40:19.987Z,1.30
2022-11-24T01:41:23.802Z,1.77
2022-11-24T01:42:25.734Z,1.65
2022-11-24T01:43:27.565Z,1.33
2022-11-24T01:44:31.468Z,1.80
2022-11-24T01:45:41.824Z,2.13
2022-11-24T01:46:47.752Z,1.70
2022-11-24T01:47:49.840Z,1.58
2022-11-24T01:49:11.716Z,1.92
2022-11-24T01:50:16.818Z,1.73
2022-11-24T01:51:25.566Z,1.70
2022-11-24T01:52:38.367Z,1.80
2022-11-24T01:53:44.226Z,1.45
2022-11-24T01:54:51.768Z,1.60
2022-11-24T01:55:53.732Z,1.60
2022-11-24T01:57:01.651Z,1.60
2022-11-24T01:58:14.564Z,1.55
2022-11-24T01:59:19.367Z,1.45
2022-11-24T02:00:21.172Z,1.50
2022-11-24T02:01:23.683Z,1.40
2022-11-24T02:02:29.951Z,1.35
2022-11-24T02:03:37.998Z,1.52
2022-11-24T02:04:40.834Z,1.20
2022-11-24T02:06:04.820Z,1.60
2022-11-24T02:07:07.654Z,1.33
2022-11-24T02:08:21.364Z,1.33
2022-11-24T02:09:33.914Z,1.23
2022-11-24T02:10:37.126Z,1.40
2022-11-24T02:11:40.793Z,1.73
2022-11-24T02:12:46.473Z,1.50
2022-11-24T02:13:50.077Z,1.60
2022-11-24T02:14:53.978Z,1.40
2022-11-24T02:15:56.010Z,1.30
2022-11-24T02:16:57.921Z,1.65
2022-11-24T02:17:59.693Z,1.55
2022-11-24T02:19:03.552Z,1.20
2022-11-24T02:20:09.083Z,1.60
2022-11-24T02:21:13.830Z,1.55
2022-11-24T02:22:22.206Z,1.63
2022-11-24T02:23:33.502Z,1.30
2022-11-24T02:24:37.982Z,1.50
2022-11-24T02:25:48.702Z,1.58
2022-11-24T02:26:52.157Z,1.52
2022-11-24T02:27:56.107Z,1.50
2022-11-24T02:28:58.027Z,1.60
2022-11-24T02:29:59.852Z,1.40
2022-11-24T02:31:02.988Z,1.40
2022-11-24T02:32:07.593Z,1.15
2022-11-24T02:33:10.425Z,1.20
2022-11-24T02:34:12.205Z,1.30
2022-11-24T02:35:14.838Z,1.10
2022-11-24T02:36:16.609Z,1.33
2022-11-24T02:37:18.412Z,1.20
2022-11-24T02:38:29.869Z,1.10
2022-11-24T02:39:31.637Z,1.30
2022-11-24T02:40:33.760Z,1.50
2022-11-24T02:41:35.738Z,1.30
2022-11-24T02:42:42.902Z,1.17
2022-11-24T02:43:54.550Z,1.20
2022-11-24T02:45:00.033Z,1.33
2022-11-24T02:46:01.892Z,1.50
2022-11-24T02:47:06.931Z,1.35
2022-11-24T02:48:08.768Z,1.35
2022-11-24T02:49:10.558Z,1.27
2022-11-24T02:50:13.117Z,1.25
2022-11-24T02:51:15.123Z,1.33
2022-11-24T02:52:17.020Z,1.20
2022-11-24T02:53:18.764Z,1.40
2022-11-24T02:54:20.587Z,1.13
2022-11-24T02:55:23.588Z,1.10
2022-11-24T02:56:26.561Z,1.23
2022-11-24T02:57:28.409Z,1.35
2022-11-24T02:58:30.239Z,1.65
2022-11-24T02:59:32.217Z,1.38
2022-11-24T03:00:34.062Z,1.00
2022-11-24T03:01:35.945Z,1.20
2022-11-24T03:02:37.987Z,1.20
2022-11-24T03:03:39.834Z,1.20
2022-11-24T03:04:41.678Z,1.40
2022-11-24T03:05:43.428Z,1.30
2022-11-24T03:06:45.233Z,1.15
2022-11-24T03:07:47.143Z,1.13
2022-11-24T03:08:48.903Z,1.33
2022-11-24T03:09:50.695Z,1.20
2022-11-24T03:10:52.551Z,1.23
2022-11-24T03:11:54.310Z,1.23
2022-11-24T03:12:56.387Z,1.40
2022-11-24T03:13:59.046Z,1.20
2022-11-24T03:15:00.828Z,1.00
2022-11-24T03:16:02.717Z,1.30
2022-11-24T03:17:04.629Z,1.25
2022-11-24T03:18:06.469Z,1.20
2022-11-24T03:19:08.273Z,1.20
2022-11-24T03:20:10.877Z,1.02
2022-11-24T03:21:12.705Z,1.17
2022-11-24T03:22:14.718Z,1.33
2022-11-24T03:23:16.461Z,1.13
2022-11-24T03:24:18.289Z,1.10
2022-11-24T03:25:20.090Z,1.33
2022-11-24T03:26:24.133Z,1.05
2022-11-24T03:27:26.057Z,1.20
2022-11-24T03:28:27.902Z,1.08
2022-11-24T03:29:30.220Z,1.15
2022-11-24T03:30:32.127Z,1.10
2022-11-24T03:31:33.991Z,1.40
2022-11-24T03:32:35.893Z,1.30
2022-11-24T03:33:37.977Z,1.45
2022-11-24T03:34:39.718Z,1.33
2022-11-24T03:35:43.432Z,1.67
2022-11-24T03:36:45.242Z,1.10
2022-11-24T03:37:47.050Z,1.20
2022-11-24T03:38:49.885Z,1.20
2022-11-24T03:39:51.639Z,1.35
2022-11-24T03:40:53.531Z,1.35
2022-11-24T03:41:55.299Z,1.38
2022-11-24T03:42:57.244Z,1.52
2022-11-24T03:43:59.056Z,1.20
2022-11-24T03:45:16.623Z,1.27
2022-11-24T03:46:22.650Z,1.40
2022-11-24T03:47:24.547Z,1.42
2022-11-24T03:48:26.337Z,1.30
2022-11-24T03:49:28.166Z,1.10
2022-11-24T03:50:29.913Z,1.15
2022-11-24T03:51:31.702Z,1.17
2022-11-24T03:52:33.537Z,1.08
2022-11-24T03:53:35.370Z,1.25
2022-11-24T03:54:37.304Z,1.10
2022-11-24T03:55:39.097Z,1.35
2022-11-24T03:56:40.838Z,1.15
2022-11-24T03:57:42.713Z,1.20
2022-11-24T03:58:44.485Z,1.40
2022-11-24T03:59:46.298Z,1.10
2022-11-24T04:00:53.543Z,1.27
2022-11-24T04:01:55.358Z,1.30
2022-11-24T04:02:57.339Z,1.08
2022-11-24T04:03:59.133Z,1.00
2022-11-24T04:05:00.885Z,1.08
2022-11-24T04:06:02.623Z,1.10
2022-11-24T04:07:04.424Z,1.30
2022-11-24T04:08:06.491Z,1.52
2022-11-24T04:09:08.413Z,1.73
2022-11-24T04:10:10.506Z,1.45
2022-11-24T04:11:32.281Z,1.13
2022-11-24T04:12:46.069Z,1.10
2022-11-24T04:13:47.954Z,1.23
2022-11-24T04:14:49.641Z,0.98
2022-11-24T04:15:52.158Z,1.02
2022-11-24T04:16:53.976Z,1.00
2022-11-24T04:17:56.514Z,1.08
2022-11-24T04:18:58.577Z,1.00
2022-11-24T04:20:00.351Z,1.00
2022-11-24T04:21:02.176Z,1.10
2022-11-24T04:22:03.896Z,0.90
2022-11-24T04:23:06.017Z,1.00
2022-11-24T04:24:07.805Z,1.10
2022-11-24T04:25:10.743Z,1.00
2022-11-24T04:26:12.936Z,0.85
2022-11-24T04:27:14.671Z,1.00
2022-11-24T04:28:16.563Z,1.00
2022-11-24T04:29:18.271Z,1.08
2022-11-24T04:30:21.588Z,1.17
2022-11-24T04:31:23.265Z,1.00
2022-11-24T04:32:25.142Z,1.05
2022-11-24T04:33:26.822Z,0.93
2022-11-24T04:34:28.527Z,1.00
2022-11-24T04:35:30.401Z,1.15
2022-11-24T04:36:32.205Z,1.08
2022-11-24T04:37:34.927Z,1.00
2022-11-24T04:39:24.688Z,1.30
2022-11-24T04:39:58.385Z,1.20
2022-11-24T04:41:04.271Z,1.15
2022-11-24T04:42:06.313Z,0.98
2022-11-24T04:43:09.351Z,1.15
2022-11-24T04:44:11.119Z,1.10
2022-11-24T04:45:12.890Z,1.30
2022-11-24T04:46:14.611Z,1.33
2022-11-24T04:47:20.245Z,0.90
2022-11-24T04:48:22.194Z,1.05
2022-11-24T04:49:24.002Z,1.10
2022-11-24T04:50:25.776Z,1.00
2022-11-24T04:51:27.647Z,0.98
2022-11-24T04:52:30.209Z,1.00
2022-11-24T04:53:32.157Z,1.13
2022-11-24T04:54:34.084Z,1.00
2022-11-24T04:55:38.741Z,0.90
2022-11-24T04:56:41.889Z,1.05
2022-11-24T04:57:43.893Z,1.00
2022-11-24T04:58:48.793Z,0.90
2022-11-24T04:59:51.556Z,1.23
2022-11-24T05:00:53.300Z,1.23
2022-11-24T05:01:55.036Z,1.33
2022-11-24T05:02:57.042Z,1.20
2022-11-24T05:03:59.641Z,1.30
2022-11-24T05:05:01.610Z,1.23
2022-11-24T05:06:03.415Z,1.15
2022-11-24T05:07:05.589Z,1.38
2022-11-24T05:08:07.384Z,1.17
2022-11-24T05:09:09.122Z,1.40
2022-11-24T05:10:28.962Z,1.20
2022-11-24T05:11:30.712Z,1.08
2022-11-24T05:12:32.433Z,1.00
2022-11-24T05:13:34.553Z,1.10
2022-11-24T05:14:36.443Z,0.70
2022-11-24T05:15:40.404Z,1.30
2022-11-24T05:16:42.215Z,1.27
2022-11-24T05:17:43.999Z,1.30
2022-11-24T05:18:46.121Z,1.20
2022-11-24T05:19:47.830Z,0.98
2022-11-24T05:20:49.661Z,1.30
2022-11-24T05:21:52.334Z,0.88
2022-11-24T05:22:54.058Z,0.90
2022-11-24T05:23:55.806Z,1.00
2022-11-24T05:24:57.606Z,0.77
2022-11-24T05:26:03.542Z,1.00
2022-11-24T05:27:05.227Z,1.00
2022-11-24T05:28:11.821Z,1.00
2022-11-24T05:29:13.549Z,0.77
2022-11-24T05:30:15.264Z,1.02
2022-11-24T05:31:17.029Z,1.00
2022-11-24T05:32:18.792Z,0.80
2022-11-24T05:33:23.046Z,0.70
2022-11-24T05:34:24.776Z,0.80
2022-11-24T05:35:26.542Z,0.90
2022-11-24T05:36:46.517Z,1.00
2022-11-24T05:37:48.467Z,1.05
2022-11-24T05:38:50.197Z,0.85
2022-11-24T05:39:51.922Z,0.77
2022-11-24T05:40:53.656Z,0.80
2022-11-24T05:41:55.333Z,0.90
2022-11-24T05:42:57.201Z,0.90
2022-11-24T05:43:58.969Z,1.23
2022-11-24T05:45:00.755Z,1.05
2022-11-24T05:46:02.640Z,0.98
2022-11-24T05:47:04.502Z,0.90
2022-11-24T05:48:08.829Z,1.00
2022-11-24T05:49:10.500Z,1.38
2022-11-24T05:50:14.839Z,1.13
2022-11-24T05:51:17.029Z,1.40
2022-11-24T05:52:18.776Z,1.20
2022-11-24T05:53:20.485Z,1.42
2022-11-24T05:54:22.174Z,0.95
2022-11-24T05:55:23.929Z,1.05
2022-11-24T05:56:25.706Z,0.90
2022-11-24T05:57:27.671Z,0.93
2022-11-24T05:58:29.422Z,0.80
2022-11-24T05:59:31.217Z,1.02
2022-11-24T06:00:34.317Z,0.93
2022-11-24T06:01:36.041Z,0.98
2022-11-24T06:02:38.099Z,1.10
2022-11-24T06:03:39.879Z,0.90
2022-11-24T06:04:41.620Z,0.90
2022-11-24T06:05:47.157Z,1.10
2022-11-24T06:06:48.886Z,0.90
2022-11-24T06:07:51.170Z,1.00
2022-11-24T06:08:53.024Z,1.20
2022-11-24T06:09:54.693Z,1.10
2022-11-24T06:11:17.260Z,1.33
2022-11-24T06:12:20.506Z,1.00
2022-11-24T06:13:22.325Z,1.00
2022-11-24T06:14:24.369Z,0.98
2022-11-24T06:15:26.029Z,1.08
2022-11-24T06:16:27.820Z,0.90
2022-11-24T06:17:29.651Z,0.90
2022-11-24T06:18:31.279Z,1.40
2022-11-24T06:19:32.964Z,0.90
2022-11-24T06:20:34.796Z,0.90
2022-11-24T06:21:36.547Z,1.17
2022-11-24T06:22:38.296Z,1.10
2022-11-24T06:23:40.487Z,1.00
2022-11-24T06:24:42.159Z,1.00
2022-11-24T06:25:47.382Z,1.35
2022-11-24T06:26:53.118Z,1.10
2022-11-24T06:27:55.068Z,1.10
2022-11-24T06:28:56.824Z,1.50
2022-11-24T06:29:58.587Z,1.20
2022-11-24T06:31:04.859Z,1.30
2022-11-24T06:32:06.640Z,1.25
2022-11-24T06:33:08.308Z,1.23
2022-11-24T06:34:11.687Z,1.27
2022-11-24T06:35:13.923Z,1.00
2022-11-24T06:36:16.259Z,1.00
2022-11-24T06:37:17.965Z,1.13
2022-11-24T06:38:24.195Z,1.02
2022-11-24T06:39:26.157Z,1.00
2022-11-24T06:40:27.808Z,0.85
2022-11-24T06:41:29.502Z,1.00
2022-11-24T06:42:31.143Z,1.00
2022-11-24T06:43:35.785Z,0.90
2022-11-24T06:44:37.544Z,1.10
2022-11-24T06:45:39.428Z,1.02
2022-11-24T06:46:41.124Z,1.10
2022-11-24T06:47:42.956Z,0.98
2022-11-24T06:48:44.647Z,0.93
2022-11-24T06:49:46.345Z,1.30
2022-11-24T06:50:48.029Z,0.90
2022-11-24T06:51:49.858Z,0.80
2022-11-24T06:52:51.540Z,0.70
2022-11-24T06:53:53.519Z,0.70
2022-11-24T06:54:55.358Z,1.00
2022-11-24T06:56:01.998Z,1.00
2022-11-24T06:57:03.764Z,0.80
2022-11-24T06:58:05.440Z,0.70
2022-11-24T06:59:07.177Z,0.82
2022-11-24T07:00:09.522Z,0.85
2022-11-24T07:01:22.326Z,0.90
2022-11-24T07:02:24.543Z,0.90
2022-11-24T07:03:26.383Z,1.00
2022-11-24T07:04:28.144Z,0.90
2022-11-24T07:05:30.108Z,0.80
2022-11-24T07:06:31.756Z,0.90
2022-11-24T07:07:33.477Z,0.80
2022-11-24T07:08:35.332Z,0.90
2022-11-24T07:09:37.020Z,0.90
2022-11-24T07:10:38.926Z,0.80
2022-11-24T07:11:41.436Z,0.70
2022-11-24T07:12:43.100Z,0.70
2022-11-24T07:13:45.686Z,0.80
2022-11-24T07:14:47.369Z,0.70
2022-11-24T07:15:49.078Z,0.82
2022-11-24T07:16:50.769Z,0.60
2022-11-24T07:17:52.509Z,0.80
2022-11-24T07:18:55.080Z,0.95
2022-11-24T07:19:56.731Z,1.00
2022-11-24T07:20:58.512Z,0.80
2022-11-24T07:22:00.197Z,0.85
2022-11-24T07:23:01.892Z,0.77
2022-11-24T07:24:04.205Z,0.73
2022-11-24T07:25:09.599Z,0.85
2022-11-24T07:26:11.423Z,0.80
2022-11-24T07:27:13.180Z,1.00
2022-11-24T07:28:14.889Z,1.02
2022-11-24T07:29:16.591Z,0.90
2022-11-24T07:30:18.384Z,0.80
2022-11-24T07:31:22.445Z,0.90
2022-11-24T07:32:24.277Z,0.88
2022-11-24T07:33:26.242Z,0.80
2022-11-24T07:34:27.912Z,1.00
2022-11-24T07:35:30.531Z,0.73
2022-11-24T07:36:32.239Z,0.85
2022-11-24T07:37:34.109Z,0.80
2022-11-24T07:38:36.409Z,1.20
2022-11-24T07:39:38.049Z,1.00
2022-11-24T07:40:39.717Z,0.88
2022-11-24T07:41:41.453Z,0.98
2022-11-24T07:42:43.186Z,0.73
2022-11-24T07:43:45.460Z,1.00
2022-11-24T07:44:47.161Z,1.20
2022-11-24T07:45:52.957Z,0.93
2022-11-24T07:46:54.704Z,0.90
2022-11-24T07:47:56.366Z,0.90
2022-11-24T07:48:58.157Z,0.75
2022-11-24T07:49:59.869Z,0.85
2022-11-24T07:51:02.701Z,1.00
2022-11-24T07:52:05.156Z,0.80
2022-11-24T07:53:06.814Z,1.20
2022-11-24T07:54:08.866Z,0.90
2022-11-24T07:55:11.092Z,0.70
2022-11-24T07:56:13.246Z,1.17
2022-11-24T07:57:15.000Z,0.80
2022-11-24T07:58:16.655Z,0.90
2022-11-24T07:59:18.426Z,0.80
2022-11-24T08:00:20.344Z,1.00
2022-11-24T08:01:22.176Z,0.80
2022-11-24T08:02:24.198Z,0.80
2022-11-24T08:03:26.084Z,0.88
2022-11-24T08:04:27.774Z,0.70
2022-11-24T08:05:29.537Z,0.77
2022-11-24T08:06:39.683Z,0.93
2022-11-24T08:07:42.558Z,0.73
2022-11-24T08:08:44.689Z,0.80
2022-11-24T08:09:46.465Z,0.82
2022-11-24T08:10:48.192Z,1.00
2022-11-24T08:11:49.821Z,0.90
2022-11-24T08:12:51.587Z,0.75
2022-11-24T08:13:53.873Z,0.85
2022-11-24T08:14:55.656Z,0.70
2022-11-24T08:15:57.341Z,0.65
2022-11-24T08:16:59.069Z,0.82
2022-11-24T08:18:02.717Z,0.80
2022-11-24T08:19:04.429Z,0.82
2022-11-24T08:20:06.982Z,0.80
2022-11-24T08:21:13.020Z,1.10
2022-11-24T08:22:14.760Z,0.73
2022-11-24T08:23:16.480Z,0.73
2022-11-24T08:24:18.201Z,0.68
2022-11-24T08:25:20.225Z,0.82
2022-11-24T08:26:23.087Z,0.70
2022-11-24T08:27:24.801Z,0.60
2022-11-24T08:28:26.510Z,0.65
2022-11-24T08:29:29.631Z,0.90
2022-11-24T08:30:31.845Z,0.75
2022-11-24T08:31:35.510Z,0.70
2022-11-24T08:32:37.248Z,0.75
2022-11-24T08:33:39.984Z,0.75
2022-11-24T08:34:41.692Z,0.68
2022-11-24T08:35:43.372Z,0.75
2022-11-24T08:36:45.105Z,0.77
2022-11-24T08:37:47.103Z,0.93
2022-11-24T08:38:53.697Z,0.70
2022-11-24T08:39:55.504Z,0.80
2022-11-24T08:41:01.871Z,0.85
2022-11-24T08:42:03.668Z,0.82
2022-11-24T08:43:05.412Z,0.80
2022-11-24T08:44:08.459Z,0.60
2022-11-24T08:45:20.485Z,0.80
2022-11-24T08:46:23.942Z,0.60
2022-11-24T08:47:25.820Z,0.68
2022-11-24T08:48:27.946Z,0.80
2022-11-24T08:49:29.660Z,0.63
2022-11-24T08:50:31.435Z,0.65
2022-11-24T08:51:33.819Z,0.88
2022-11-24T08:52:35.807Z,0.70
2022-11-24T08:53:38.022Z,0.93
2022-11-24T08:54:40.915Z,0.70
2022-11-24T08:55:42.581Z,0.85
2022-11-24T08:56:44.861Z,0.65
2022-11-24T08:57:46.536Z,0.70
2022-11-24T08:58:48.367Z,0.70
2022-11-24T08:59:50.183Z,0.95
2022-11-24T09:00:51.897Z,0.70
2022-11-24T09:01:53.704Z,0.80
2022-11-24T09:02:57.076Z,0.77
2022-11-24T09:03:58.995Z,0.60
2022-11-24T09:05:00.704Z,0.70
2022-11-24T09:06:02.668Z,0.65
2022-11-24T09:07:04.880Z,0.60
2022-11-24T09:08:06.655Z,0.60
2022-11-24T09:09:10.019Z,1.00
2022-11-24T09:10:12.039Z,0.50
2022-11-24T09:11:15.331Z,0.60
2022-11-24T09:12:17.038Z,1.00
2022-11-24T09:13:18.849Z,0.68
2022-11-24T09:14:20.704Z,0.70
2022-11-24T09:15:22.952Z,0.60
2022-11-24T09:16:27.375Z,0.80
2022-11-24T09:17:29.118Z,0.73
2022-11-24T09:18:30.847Z,0.70
2022-11-24T09:19:32.944Z,0.52
2022-11-24T09:20:34.930Z,0.80
2022-11-24T09:21:39.472Z,0.88
2022-11-24T09:22:43.244Z,0.93
2022-11-24T09:23:48.684Z,0.80
2022-11-24T09:24:50.455Z,0.70
2022-11-24T09:25:52.141Z,0.70
2022-11-24T09:26:55.456Z,0.70
2022-11-24T09:27:57.477Z,0.50
2022-11-24T09:29:01.143Z,0.70
2022-11-24T09:30:03.602Z,0.70
2022-11-24T09:31:08.214Z,0.90
2022-11-24T09:32:10.411Z,0.70
2022-11-24T09:33:12.142Z,0.70
2022-11-24T09:34:15.648Z,0.70
2022-11-24T09:35:17.696Z,0.60
2022-11-24T09:36:20.417Z,0.80
2022-11-24T09:37:22.188Z,0.63
2022-11-24T09:38:24.182Z,0.60
2022-11-24T09:39:25.854Z,0.68
2022-11-24T09:40:27.517Z,0.70
2022-11-24T09:41:38.418Z,0.50
2022-11-24T09:43:01.790Z,0.70
2022-11-24T09:44:28.000Z,0.70
2022-11-24T09:46:03.785Z,1.00
2022-11-24T09:47:20.848Z,0.80
2022-11-24T09:48:40.801Z,0.60
2022-11-24T09:49:58.366Z,0.52
2022-11-24T09:51:03.761Z,0.70
2022-11-24T09:52:12.822Z,0.70
2022-11-24T09:53:33.249Z,0.77
2022-11-24T09:54:37.513Z,0.90
2022-11-24T09:55:49.616Z,0.80
2022-11-24T09:56:52.556Z,0.68
2022-11-24T09:58:15.630Z,0.70
2022-11-24T09:59:20.527Z,0.70
2022-11-24T10:00:22.232Z,0.77
2022-11-24T10:01:32.629Z,0.88
2022-11-24T10:02:34.422Z,0.80
2022-11-24T10:03:45.552Z,0.77
2022-11-24T10:04:47.477Z,0.80
2022-11-24T10:05:51.452Z,0.80
2022-11-24T10:07:08.072Z,0.80
2022-11-24T10:08:17.187Z,0.80
2022-11-24T10:09:21.818Z,0.73
2022-11-24T10:10:28.516Z,0.70
2022-11-24T10:11:57.543Z,0.70
2022-11-24T10:13:35.831Z,0.70
2022-11-24T10:15:04.765Z,0.55
2022-11-24T10:16:42.507Z,0.70
2022-11-24T10:18:09.353Z,0.85
2022-11-24T10:19:37.127Z,0.57
2022-11-24T10:20:57.167Z,0.70
2022-11-24T10:22:08.019Z,0.90
2022-11-24T10:23:15.583Z,0.60
2022-11-24T10:24:37.396Z,0.60
2022-11-24T10:25:59.225Z,0.70
2022-11-24T10:27:16.119Z,0.80
2022-11-24T10:28:18.058Z,0.70
2022-11-24T10:29:39.229Z,0.90
2022-11-24T10:30:41.466Z,0.70
2022-11-24T10:31:45.455Z,0.82
2022-11-24T10:32:49.788Z,0.80
2022-11-24T10:33:51.909Z,0.70
2022-11-24T10:34:59.105Z,0.90
2022-11-24T10:36:12.188Z,0.85
2022-11-24T10:37:22.447Z,0.80
2022-11-24T10:38:52.773Z,0.70
2022-11-24T10:40:05.862Z,0.80
2022-11-24T10:41:13.461Z,0.90
2022-11-24T10:42:27.923Z,0.77
2022-11-24T10:43:29.869Z,0.80
2022-11-24T10:44:31.740Z,0.90
2022-11-24T10:45:33.529Z,0.77
2022-11-24T10:46:39.537Z,1.10
2022-11-24T10:47:43.865Z,0.82
2022-11-24T10:48:57.768Z,0.90
2022-11-24T10:50:04.472Z,0.70
2022-11-24T10:51:38.974Z,0.90
2022-11-24T10:52:45.054Z,0.80
2022-11-24T10:53:48.355Z,0.80
2022-11-24T10:55:04.219Z,0.60
2022-11-24T10:56:06.210Z,0.60
2022-11-24T10:57:08.285Z,1.00
2022-11-24T10:58:23.526Z,0.73
2022-11-24T10:59:25.132Z,0.70
2022-11-24T11:00:26.753Z,0.80
2022-11-24T11:01:33.139Z,0.68
2022-11-24T11:02:40.325Z,0.90
2022-11-24T11:03:55.030Z,0.70
2022-11-24T11:04:57.165Z,0.70
2022-11-24T11:06:13.888Z,0.90
2022-11-24T11:07:19.718Z,0.90
2022-11-24T11:08:30.307Z,0.70
2022-11-24T11:09:32.229Z,0.88
2022-11-24T11:10:34.227Z,0.90
2022-11-24T11:11:38.711Z,0.80
2022-11-24T11:12:44.919Z,0.80
2022-11-24T11:14:03.922Z,0.70
2022-11-24T11:15:29.343Z,0.82
2022-11-24T11:16:37.168Z,0.70
2022-11-24T11:17:39.497Z,0.57
2022-11-24T11:18:48.910Z,0.77
2022-11-24T11:19:56.998Z,0.70
2022-11-24T11:21:04.043Z,0.70
2022-11-24T11:22:12.053Z,0.80
2022-11-24T11:23:20.491Z,0.80
2022-11-24T11:24:22.236Z,0.80
2022-11-24T11:25:31.010Z,0.85
2022-11-24T11:26:36.497Z,0.90
2022-11-24T11:27:39.759Z,0.88
2022-11-24T11:28:41.523Z,0.65
2022-11-24T11:31:21.339Z,0.98
2022-11-24T11:34:23.475Z,0.85
2022-11-24T11:35:32.286Z,0.70
2022-11-24T11:36:34.615Z,0.77
2022-11-24T11:37:36.410Z,0.90
2022-11-24T11:38:39.968Z,1.00
2022-11-24T11:39:48.853Z,0.90
2022-11-24T11:40:51.737Z,1.05
2022-11-24T11:42:45.450Z,0.82
2022-11-24T11:43:41.701Z,0.82
2022-11-24T11:45:11.768Z,0.93
2022-11-24T11:46:17.930Z,1.02
2022-11-24T11:47:31.714Z,1.00
2022-11-24T11:48:43.091Z,0.77
2022-11-24T11:49:48.481Z,0.85
2022-11-24T11:52:43.622Z,1.17
2022-11-24T11:53:57.567Z,0.98
2022-11-24T11:55:20.981Z,0.85
2022-11-24T11:56:33.040Z,0.90
2022-11-24T11:57:53.083Z,0.90
2022-11-24T11:59:40.386Z,1.20
2022-11-24T12:00:50.987Z,0.90
2022-11-24T12:02:03.325Z,0.90
2022-11-24T12:03:26.453Z,1.00
2022-11-24T12:04:58.564Z,0.90
2022-11-24T12:06:14.297Z,0.95
2022-11-24T12:07:34.424Z,0.90
2022-11-24T12:10:42.043Z,1.20
2022-11-24T12:12:08.911Z,0.85
2022-11-24T12:13:42.490Z,1.10
2022-11-24T12:15:21.272Z,1.02
2022-11-24T12:16:38.130Z,0.80
2022-11-24T12:17:46.915Z,1.10
2022-11-24T12:19:00.692Z,0.90
2022-11-24T12:20:31.758Z,1.35
2022-11-24T12:21:53.591Z,1.00
2022-11-24T12:23:11.158Z,0.98
2022-11-24T12:24:40.061Z,1.17
2022-11-24T12:25:50.983Z,1.00
2022-11-24T12:26:52.658Z,1.20
2022-11-24T12:28:02.712Z,1.08
2022-11-24T12:29:41.700Z,1.02
2022-11-24T12:31:26.896Z,1.23
2022-11-24T12:32:54.544Z,0.95
2022-11-24T12:34:22.705Z,1.20
2022-11-24T12:35:33.401Z,1.23
2022-11-24T12:37:06.403Z,1.13
2022-11-24T12:38:11.017Z,1.23
2022-11-24T12:39:34.476Z,1.10
2022-11-24T12:40:47.161Z,1.10
2022-11-24T12:42:00.567Z,1.38
2022-11-24T12:43:26.441Z,1.10
2022-11-24T12:44:47.255Z,1.10
2022-11-24T12:46:17.567Z,1.13
2022-11-24T12:47:27.252Z,1.38
2022-11-24T12:48:37.059Z,1.20
2022-11-24T12:50:09.059Z,1.25
2022-11-24T12:51:18.440Z,1.05
2022-11-24T12:52:29.846Z,1.15
2022-11-24T12:53:34.677Z,1.23
2022-11-24T12:54:40.936Z,1.10
2022-11-24T12:55:44.360Z,1.13
2022-11-24T12:57:07.117Z,1.20
2022-11-24T12:58:31.998Z,1.08
2022-11-24T13:00:02.573Z,1.20
2022-11-24T13:01:22.607Z,1.50
2022-11-24T13:02:33.537Z,1.00
2022-11-24T13:03:53.672Z,0.95
2022-11-24T13:04:58.233Z,0.93
2022-11-24T13:06:07.604Z,1.10
2022-11-24T13:07:12.951Z,1.10
2022-11-24T13:08:15.994Z,1.00
2022-11-24T13:09:17.866Z,0.93
2022-11-24T13:11:51.899Z,1.10
2022-11-24T13:13:10.593Z,1.02
2022-11-24T13:14:19.238Z,1.40
2022-11-24T13:15:44.512Z,1.35
2022-11-24T13:18:49.720Z,1.05
2022-11-24T13:19:51.516Z,1.15
2022-11-24T13:20:53.349Z,1.27
2022-11-24T13:22:06.992Z,1.38
2022-11-24T13:23:24.215Z,1.70
2022-11-24T13:24:33.760Z,1.83
2022-11-24T13:25:36.366Z,1.60
2022-11-24T13:26:43.941Z,1.58
2022-11-24T13:27:48.696Z,1.73
2022-11-24T13:29:08.848Z,1.75
2022-11-24T13:30:33.609Z,1.42
2022-11-24T13:31:35.334Z,1.77
2022-11-24T13:32:36.941Z,1.80
2022-11-24T13:33:41.916Z,2.00
2022-11-24T13:34:43.683Z,1.80
2022-11-24T13:36:04.364Z,1.85
2022-11-24T13:37:33.912Z,1.75
2022-11-24T13:39:01.748Z,1.60
2022-11-24T13:40:23.419Z,1.70
2022-11-24T13:41:37.101Z,1.80
2022-11-24T13:43:03.097Z,2.00
2022-11-24T13:44:13.641Z,1.50
2022-11-24T13:45:40.324Z,1.90
2022-11-24T13:47:05.600Z,1.63
2022-11-24T13:48:21.375Z,1.70
2022-11-24T13:49:24.763Z,1.83
2022-11-24T13:50:51.570Z,1.73
2022-11-24T13:51:57.137Z,1.77
2022-11-24T13:53:10.254Z,1.58
2022-11-24T13:54:12.055Z,1.98
2022-11-24T13:55:13.855Z,1.80
2022-11-24T13:56:15.608Z,1.67
2022-11-24T13:57:38.853Z,1.52
2022-11-24T13:58:48.602Z,1.70
2022-11-24T13:59:50.319Z,1.80
2022-11-24T14:01:06.969Z,1.60
2022-11-24T14:02:23.158Z,1.70
2022-11-24T14:04:21.609Z,1.83
2022-11-24T14:05:17.976Z,1.52
2022-11-24T14:06:38.077Z,1.55
2022-11-24T14:07:42.430Z,1.45
2022-11-24T14:08:45.856Z,1.95
2022-11-24T14:09:52.471Z,1.60
2022-11-24T14:10:57.872Z,1.80
2022-11-24T14:12:22.694Z,1.38
2022-11-24T14:13:33.089Z,1.90
2022-11-24T14:14:35.143Z,1.63
2022-11-24T14:15:37.957Z,1.70
2022-11-24T14:16:39.885Z,1.70
2022-11-24T14:17:41.568Z,1.77
2022-11-24T14:18:48.319Z,1.95
2022-11-24T14:19:55.601Z,1.80
2022-11-24T14:20:59.537Z,1.73
2022-11-24T14:22:01.282Z,1.90
2022-11-24T14:23:02.989Z,1.67
2022-11-24T14:24:25.398Z,1.83
2022-11-24T14:25:30.708Z,1.70
2022-11-24T14:26:35.760Z,1.48
2022-11-24T14:27:39.096Z,1.80
2022-11-24T14:28:41.110Z,1.58
2022-11-24T14:29:59.387Z,1.88
2022-11-24T14:31:09.451Z,1.60
2022-11-24T14:32:16.471Z,1.52
2022-11-24T14:33:20.140Z,1.50
2022-11-24T14:34:24.439Z,1.50
2022-11-24T14:35:34.572Z,1.20
2022-11-24T14:36:36.274Z,1.20
2022-11-24T14:37:37.951Z,1.00
2022-11-24T14:38:39.664Z,1.45
2022-11-24T14:39:42.755Z,1.30
2022-11-24T14:40:52.984Z,1.20
2022-11-24T14:42:04.931Z,0.90
2022-11-24T14:43:17.584Z,1.08
2022-11-24T14:44:22.679Z,1.20
2022-11-24T14:45:24.408Z,0.85
2022-11-24T14:46:26.167Z,0.80
2022-11-24T14:47:36.143Z,1.10